Hauptseite
METAR-TAF:

METAR-TAF

Flughäfen :

RAF Wittering

Wittering, England

Breite: 52-37N, Länge: 000-28W, Höhe: 84 m

Beobachtung

Neuester Wetterbericht von vor 35 Minuten, um 12:50 UTC
Wind 12 kt aus West
Temperatur 22°C
Luftfeuchtigkeit 41%
Luftdruck 1014 hPa
Sichtweite 10 km oder mehr
Leicht bewölkt in der Höhe von 4500 ft
Aufgelockert bewölkt in der Höhe von 6000 ft
Durchbrochene Bewölkung in der Höhe von 7500 ft

METAR: EGXT 171250Z 28012KT 9999 FEW045 SCT060 BKN075 22/08 Q1014 BLU

Zeit: 14:25 (13:25 UTC)

Prognose

Neuester Wetterbericht von vor 2 Stunden und 54 Minuten, um 10:31 UTC
Gültige Prognose vom 17 um 12 UTC bis 17 um 18 UTC
Wind 10 kt aus West
Sichtweite 10 km oder mehr
Aufgelockert bewölkt in der Höhe von 4000 ft

TAF: EGXT 171031Z 1712/1718 27010KT 9999 SCT040

Wetterbeobachtungen und Prognosen von mehr als 4000 Flughäfen (METAR und TAF Bericht).

Die verfügbaren Stationen werden durch gelbe und rote Markierungen auf der Karte dargestellt.

Führen Sie die Maus auf sie, um den Namen der Station zu sehen.

Darauf klicken, um die Beobachtung von Wetterbeobachtungen und Prognosen zu sehen.

Um die Karte zu ändern : klicken Sie auf den grünen Tasten mit einem schwarzen Kreuz Zum Vergrößern, auf den grünen Button mit einem Gedankenstrich zu verkleinern, oder auf die grünen Pfeile für benachbarte Karten.


METAR-TAF: